Time;durP1;ratioP1;P1;durP2;ratioP2;P2;SDS_P1;SDS_P2;PMS_P1;PMS_P2;Temp;Humidity;BMP_temperature;BMP_pressure;BME280_temperature;BME280_humidity;BME280_pressure;Samples;Min_cycle;Max_cycle;Signal;HPM_P1;HPM_P2
2022/11/21 00:01:14;;;;;;;;;;;18.30;65.10;;;;;;4512778;31;20040;-67
2022/11/21 00:03:40;;;;;;;;;;;18.30;65.10;;;;;;4515047;31;20032;-67
2022/11/21 00:06:06;;;;;;;;;;;18.30;65.10;;;;;;4503154;31;19974;-67
2022/11/21 00:08:32;;;;;;;;;;;18.30;65.10;;;;;;4497909;31;20137;-67
2022/11/21 00:10:58;;;;;;;;;;;18.30;65.20;;;;;;4490715;31;20033;-67
2022/11/21 00:13:24;;;;;;;;;;;18.20;65.10;;;;;;4513305;31;20043;-67
2022/11/21 00:15:49;;;;;;;;;;;18.20;65.10;;;;;;4514149;31;20029;-67
2022/11/21 00:18:15;;;;;;;;;;;18.20;65.20;;;;;;4513436;31;20628;-67
2022/11/21 00:20:41;;;;;;;;;;;18.20;65.20;;;;;;4514329;31;20175;-67
2022/11/21 00:23:07;;;;;;;;;;;18.20;65.20;;;;;;4515000;31;20145;-66
2022/11/21 00:25:34;;;;;;;;;;;18.20;65.20;;;;;;4513573;31;20039;-67
2022/11/21 00:27:59;;;;;;;;;;;18.20;65.30;;;;;;4515441;31;20017;-67
2022/11/21 00:30:25;;;;;;;;;;;18.20;65.20;;;;;;4513346;31;20409;-67
2022/11/21 00:32:51;;;;;;;;;;;18.20;65.20;;;;;;4514909;31;20028;-67
2022/11/21 00:35:17;;;;;;;;;;;18.10;65.20;;;;;;4502652;31;20147;-67
2022/11/21 00:37:43;;;;;;;;;;;18.10;65.10;;;;;;4513321;31;20035;-67
2022/11/21 00:40:09;;;;;;;;;;;18.10;65.20;;;;;;4512736;31;19977;-66
2022/11/21 00:42:35;;;;;;;;;;;18.10;65.20;;;;;;4512834;31;20043;-67
2022/11/21 00:45:01;;;;;;;;;;;18.10;65.20;;;;;;4488625;31;20186;-66
2022/11/21 00:47:27;;;;;;;;;;;18.10;65.10;;;;;;4512435;31;20446;-67
2022/11/21 00:49:52;;;;;;;;;;;18.10;65.20;;;;;;4514471;31;20024;-67
2022/11/21 00:52:18;;;;;;;;;;;18.00;65.10;;;;;;4512354;31;20090;-67
2022/11/21 00:54:44;;;;;;;;;;;18.00;65.10;;;;;;4526336;31;20090;-67
2022/11/21 00:57:10;;;;;;;;;;;18.00;65.20;;;;;;4513440;31;20053;-67
2022/11/21 00:59:36;;;;;;;;;;;18.00;65.10;;;;;;4513144;31;20040;-67
2022/11/21 01:02:02;;;;;;;;;;;18.00;65.10;;;;;;4514400;31;20047;-66
2022/11/21 01:04:31;;;;;;;;;;;18.00;65.10;;;;;;4511112;31;20036;-67
2022/11/21 01:06:57;;;;;;;;;;;18.00;65.20;;;;;;4515001;31;20028;-67
2022/11/21 01:09:23;;;;;;;;;;;18.00;65.10;;;;;;4525359;31;20097;-67
2022/11/21 01:11:49;;;;;;;;;;;18.00;65.10;;;;;;4513687;31;20504;-67
2022/11/21 01:14:15;;;;;;;;;;;18.00;65.10;;;;;;4512034;31;20032;-68
2022/11/21 01:16:40;;;;;;;;;;;18.00;65.20;;;;;;4502569;31;20053;-69
2022/11/21 01:19:06;;;;;;;;;;;17.90;65.10;;;;;;4513986;31;20021;-69
2022/11/21 01:21:32;;;;;;;;;;;17.90;65.20;;;;;;4510762;31;20052;-70
2022/11/21 01:23:58;;;;;;;;;;;17.90;65.20;;;;;;4513346;31;20021;-67
2022/11/21 01:26:25;;;;;;;;;;;17.90;65.10;;;;;;4512303;31;20041;-67
2022/11/21 01:28:51;;;;;;;;;;;17.90;65.20;;;;;;4514315;31;20170;-67
2022/11/21 01:31:18;;;;;;;;;;;17.90;65.10;;;;;;4511038;31;20158;-67
2022/11/21 01:33:44;;;;;;;;;;;17.90;65.10;;;;;;4513276;31;20029;-67
2022/11/21 01:36:18;;;;;;;;;;;17.90;65.20;;;;;;4513126;31;20043;-67
2022/11/21 01:38:45;;;;;;;;;;;17.90;65.30;;;;;;4512250;31;20043;-68
2022/11/21 01:41:11;;;;;;;;;;;17.90;65.30;;;;;;4513228;31;20381;-68
2022/11/21 01:43:37;;;;;;;;;;;17.80;65.30;;;;;;4509792;31;20083;-68
2022/11/21 01:46:06;;;;;;;;;;;17.90;65.30;;;;;;4514173;31;20040;-68
2022/11/21 01:48:38;;;;;;;;;;;17.80;65.20;;;;;;4513043;31;20053;-67
2022/11/21 01:51:10;;;;;;;;;;;17.80;65.20;;;;;;4511503;31;20493;-68
2022/11/21 01:53:37;;;;;;;;;;;17.80;65.30;;;;;;4498656;31;20037;-67
2022/11/21 01:56:10;;;;;;;;;;;17.80;65.30;;;;;;4511325;31;20036;-68
2022/11/21 01:58:38;;;;;;;;;;;17.80;65.20;;;;;;4511840;31;20021;-67
2022/11/21 02:01:04;;;;;;;;;;;17.80;65.20;;;;;;4512170;31;20029;-68
2022/11/21 02:03:32;;;;;;;;;;;17.80;65.30;;;;;;4513679;31;20040;-68
2022/11/21 02:05:58;;;;;;;;;;;17.80;65.20;;;;;;4511392;31;20058;-67
2022/11/21 02:08:25;;;;;;;;;;;17.80;65.40;;;;;;4510990;31;20033;-68
2022/11/21 02:11:09;;;;;;;;;;;17.80;65.40;;;;;;4513791;31;20037;-68
2022/11/21 02:13:35;;;;;;;;;;;17.80;65.50;;;;;;4511375;31;20402;-68
2022/11/21 02:16:01;;;;;;;;;;;17.80;65.50;;;;;;4502426;31;20063;-67
2022/11/21 02:18:27;;;;;;;;;;;17.70;65.50;;;;;;4496051;31;20041;-67
2022/11/21 02:20:57;;;;;;;;;;;17.70;65.50;;;;;;4512555;31;19993;-68
2022/11/21 02:23:23;;;;;;;;;;;17.70;65.50;;;;;;4512071;31;20090;-67
2022/11/21 02:25:50;;;;;;;;;;;17.70;65.50;;;;;;4511659;31;20029;-68
2022/11/21 02:28:18;;;;;;;;;;;17.70;65.40;;;;;;4513468;31;20429;-68
2022/11/21 02:30:44;;;;;;;;;;;17.70;65.40;;;;;;4510387;31;20089;-68
2022/11/21 02:33:10;;;;;;;;;;;17.70;65.50;;;;;;4512422;31;20037;-67
2022/11/21 02:35:36;;;;;;;;;;;17.70;65.50;;;;;;4511270;31;20520;-68
2022/11/21 02:38:10;;;;;;;;;;;17.70;65.50;;;;;;4511412;31;20047;-68
2022/11/21 02:40:38;;;;;;;;;;;17.70;65.60;;;;;;4493226;31;20041;-67
2022/11/21 02:43:24;;;;;;;;;;;17.70;65.60;;;;;;4511029;31;20042;-68
2022/11/21 02:45:50;;;;;;;;;;;17.60;66.40;;;;;;4525702;31;20025;-69
2022/11/21 02:48:16;;;;;;;;;;;17.60;65.60;;;;;;4508577;31;20051;-67
2022/11/21 02:50:43;;;;;;;;;;;17.60;65.60;;;;;;4510897;31;20114;-68
2022/11/21 02:53:11;;;;;;;;;;;17.60;65.60;;;;;;4509736;31;20040;-67
2022/11/21 02:55:37;;;;;;;;;;;17.60;65.70;;;;;;4508164;31;20048;-67
2022/11/21 02:58:03;;;;;;;;;;;17.60;65.60;;;;;;4525988;31;20017;-66
2022/11/21 03:00:28;;;;;;;;;;;17.60;65.60;;;;;;4524143;31;20073;-67
2022/11/21 03:03:01;;;;;;;;;;;17.60;65.70;;;;;;4500201;31;20051;-67
2022/11/21 03:05:27;;;;;;;;;;;17.50;65.70;;;;;;4504405;31;20468;-66
2022/11/21 03:07:53;;;;;;;;;;;17.50;65.70;;;;;;4511275;31;20021;-67
2022/11/21 03:10:19;;;;;;;;;;;17.50;65.80;;;;;;4525650;31;20438;-66
2022/11/21 03:12:45;;;;;;;;;;;17.50;65.80;;;;;;4511887;31;20040;-66
2022/11/21 03:15:12;;;;;;;;;;;17.50;65.80;;;;;;4491862;31;20032;-67
2022/11/21 03:17:38;;;;;;;;;;;17.50;65.80;;;;;;4496017;31;20029;-66
2022/11/21 03:20:04;;;;;;;;;;;17.40;65.80;;;;;;4513759;31;20029;-67
2022/11/21 03:22:30;;;;;;;;;;;17.40;65.80;;;;;;4512006;31;20033;-66
2022/11/21 03:24:55;;;;;;;;;;;17.40;65.80;;;;;;4512833;31;20961;-66
2022/11/21 03:27:21;;;;;;;;;;;17.40;65.80;;;;;;4512895;31;20045;-66
2022/11/21 03:29:47;;;;;;;;;;;17.40;65.80;;;;;;4496758;31;20370;-66
2022/11/21 03:32:13;;;;;;;;;;;17.40;65.80;;;;;;4510903;31;20036;-67
2022/11/21 03:34:38;;;;;;;;;;;17.40;65.70;;;;;;4513338;31;20024;-67
2022/11/21 03:37:04;;;;;;;;;;;17.40;65.70;;;;;;4527387;31;20470;-66
2022/11/21 03:39:31;;;;;;;;;;;17.40;65.80;;;;;;4513525;31;20020;-66
2022/11/21 03:41:56;;;;;;;;;;;17.40;65.70;;;;;;4513964;31;20028;-66
2022/11/21 03:44:22;;;;;;;;;;;17.40;65.80;;;;;;4514524;31;20109;-66
2022/11/21 03:46:48;;;;;;;;;;;17.30;65.70;;;;;;4513464;31;20041;-67
2022/11/21 03:49:15;;;;;;;;;;;17.30;65.70;;;;;;4514354;31;20017;-66
2022/11/21 03:51:41;;;;;;;;;;;17.30;65.80;;;;;;4514175;31;20029;-67
2022/11/21 03:54:07;;;;;;;;;;;17.30;65.80;;;;;;4515121;31;20079;-66
2022/11/21 03:56:33;;;;;;;;;;;17.30;65.80;;;;;;4513456;31;20036;-67
2022/11/21 03:58:59;;;;;;;;;;;17.20;65.70;;;;;;4514963;31;20021;-67
2022/11/21 04:01:25;;;;;;;;;;;17.30;65.80;;;;;;4527666;31;20004;-66
2022/11/21 04:03:51;;;;;;;;;;;17.20;65.70;;;;;;4513498;31;20055;-67
2022/11/21 04:06:18;;;;;;;;;;;17.20;65.70;;;;;;4516233;31;20017;-66
2022/11/21 04:08:43;;;;;;;;;;;17.20;65.70;;;;;;4514072;31;20077;-67
2022/11/21 04:11:10;;;;;;;;;;;17.20;66.60;;;;;;4516059;31;20021;-66
2022/11/21 04:13:35;;;;;;;;;;;17.20;65.70;;;;;;4513972;31;20588;-67
2022/11/21 04:16:01;;;;;;;;;;;17.20;65.70;;;;;;4515862;31;20036;-66
2022/11/21 04:18:27;;;;;;;;;;;17.20;65.70;;;;;;4514863;31;20441;-66
2022/11/21 04:20:59;;;;;;;;;;;17.20;65.70;;;;;;4514951;31;20035;-66
2022/11/21 04:23:25;;;;;;;;;;;17.20;65.70;;;;;;4528180;31;20446;-66
2022/11/21 04:25:51;;;;;;;;;;;17.20;65.70;;;;;;4512670;31;20020;-66
2022/11/21 04:28:17;;;;;;;;;;;17.10;65.70;;;;;;4515881;31;20028;-66
2022/11/21 04:30:43;;;;;;;;;;;17.10;65.80;;;;;;4502116;31;20025;-66
2022/11/21 04:33:09;;;;;;;;;;;17.10;65.70;;;;;;4515504;31;20032;-66
2022/11/21 04:35:35;;;;;;;;;;;17.10;65.70;;;;;;4514877;31;20037;-66
2022/11/21 04:38:01;;;;;;;;;;;17.10;65.80;;;;;;4514649;31;20017;-66
2022/11/21 04:40:27;;;;;;;;;;;17.10;65.80;;;;;;4515532;31;20602;-66
2022/11/21 04:42:53;;;;;;;;;;;17.10;65.80;;;;;;4501035;31;20156;-66
2022/11/21 04:45:18;;;;;;;;;;;17.10;65.80;;;;;;4515507;31;20843;-66
2022/11/21 04:47:45;;;;;;;;;;;17.10;65.80;;;;;;4513604;31;20055;-67
2022/11/21 04:50:12;;;;;;;;;;;17.10;65.70;;;;;;4527749;31;20025;-67
2022/11/21 04:52:37;;;;;;;;;;;17.00;65.70;;;;;;4513676;31;20040;-66
2022/11/21 04:55:03;;;;;;;;;;;17.00;65.70;;;;;;4514655;31;20031;-67
2022/11/21 04:57:32;;;;;;;;;;;17.00;65.70;;;;;;4515436;31;20163;-66
2022/11/21 04:59:58;;;;;;;;;;;17.00;65.70;;;;;;4525693;31;20155;-67
2022/11/21 05:02:23;;;;;;;;;;;17.00;65.70;;;;;;4501332;31;20025;-67
2022/11/21 05:04:49;;;;;;;;;;;17.00;65.70;;;;;;4513368;31;20068;-67
2022/11/21 05:07:16;;;;;;;;;;;17.00;65.60;;;;;;4515446;31;20056;-66
2022/11/21 05:09:42;;;;;;;;;;;17.00;65.60;;;;;;4513587;31;20043;-66
2022/11/21 05:14:53;;;;;;;;;;;17.00;65.60;;;;;;4515168;31;20028;-66
2022/11/21 05:17:19;;;;;;;;;;;17.00;65.60;;;;;;4513215;31;20515;-67
2022/11/21 05:19:44;;;;;;;;;;;17.00;65.60;;;;;;4515073;31;20057;-66
2022/11/21 05:22:11;;;;;;;;;;;16.90;65.60;;;;;;4513232;31;20139;-67
2022/11/21 05:24:37;;;;;;;;;;;16.90;65.50;;;;;;4514574;31;20141;-66
2022/11/21 05:27:03;;;;;;;;;;;16.90;65.50;;;;;;4514178;31;20017;-67
2022/11/21 05:29:28;;;;;;;;;;;16.90;65.50;;;;;;4513548;31;20025;-66
2022/11/21 05:31:54;;;;;;;;;;;16.90;65.50;;;;;;4506526;31;20025;-66
2022/11/21 05:34:20;;;;;;;;;;;16.90;65.50;;;;;;4509250;31;20489;-66
2022/11/21 05:36:46;;;;;;;;;;;16.90;66.40;;;;;;4514980;31;20017;-66
2022/11/21 05:39:12;;;;;;;;;;;16.90;65.50;;;;;;4513070;31;20021;-66
2022/11/21 05:41:38;;;;;;;;;;;16.80;65.40;;;;;;4498004;31;20043;-66
2022/11/21 05:44:04;;;;;;;;;;;16.90;65.50;;;;;;4506641;31;20038;-66
2022/11/21 05:46:30;;;;;;;;;;;16.80;65.40;;;;;;4513663;31;20017;-66
2022/11/21 05:48:56;;;;;;;;;;;16.80;65.40;;;;;;4505969;31;20025;-66
2022/11/21 05:51:21;;;;;;;;;;;16.80;65.40;;;;;;4509123;31;20085;-67
2022/11/21 05:53:47;;;;;;;;;;;16.70;65.40;;;;;;4514876;31;20063;-66
2022/11/21 05:56:14;;;;;;;;;;;16.80;65.40;;;;;;4500411;31;20017;-67
2022/11/21 05:58:40;;;;;;;;;;;16.80;65.40;;;;;;4514355;31;20139;-67
2022/11/21 06:01:07;;;;;;;;;;;16.80;65.40;;;;;;4513245;31;20039;-66
2022/11/21 06:03:37;;;;;;;;;;;16.80;65.40;;;;;;4498444;31;20032;-66
2022/11/21 06:06:08;;;;;;;;;;;16.70;65.30;;;;;;4518933;31;20033;-66
2022/11/21 06:08:39;;;;;;;;;;;16.80;65.40;;;;;;4499972;31;20590;-66
2022/11/21 06:11:05;;;;;;;;;;;16.80;65.30;;;;;;4514464;31;20032;-67
2022/11/21 06:13:32;;;;;;;;;;;16.80;65.40;;;;;;4524246;31;20612;-66
2022/11/21 06:16:06;;;;;;;;;;;16.70;65.30;;;;;;4514301;31;20024;-66
2022/11/21 06:18:32;;;;;;;;;;;16.70;65.30;;;;;;4513607;31;19992;-66
2022/11/21 06:21:18;;;;;;;;;;;16.70;65.20;;;;;;4512876;31;20040;-67
2022/11/21 06:23:45;;;;;;;;;;;16.70;65.30;;;;;;4513951;31;20147;-66
2022/11/21 06:26:11;;;;;;;;;;;16.70;65.30;;;;;;4511994;31;20082;-66
2022/11/21 06:28:38;;;;;;;;;;;16.70;65.30;;;;;;4514149;31;20036;-66
2022/11/21 06:31:14;;;;;;;;;;;16.70;65.30;;;;;;4512557;31;20155;-66
2022/11/21 06:33:41;;;;;;;;;;;16.70;65.30;;;;;;4504198;31;20114;-66
2022/11/21 06:36:08;;;;;;;;;;;16.70;65.30;;;;;;4522892;31;20086;-66
2022/11/21 06:38:34;;;;;;;;;;;16.60;65.20;;;;;;4524220;31;20029;-66
2022/11/21 06:41:06;;;;;;;;;;;16.60;65.10;;;;;;4513992;31;20013;-66
2022/11/21 06:43:33;;;;;;;;;;;16.60;65.20;;;;;;4511571;31;20032;-67
2022/11/21 06:45:59;;;;;;;;;;;16.60;65.20;;;;;;4513886;31;20020;-67
2022/11/21 06:48:24;;;;;;;;;;;16.60;65.10;;;;;;4525054;31;20013;-66
2022/11/21 06:50:50;;;;;;;;;;;16.60;65.20;;;;;;4512828;31;20020;-66
2022/11/21 06:53:16;;;;;;;;;;;16.60;65.20;;;;;;4513586;31;20497;-67
2022/11/21 06:55:41;;;;;;;;;;;16.60;65.20;;;;;;4523959;31;20025;-66
2022/11/21 06:58:07;;;;;;;;;;;16.60;65.20;;;;;;4525962;31;20033;-66
2022/11/21 07:00:33;;;;;;;;;;;16.50;65.10;;;;;;4505123;31;20032;-66
2022/11/21 07:03:00;;;;;;;;;;;16.60;65.20;;;;;;4496949;31;20032;-66
2022/11/21 07:05:26;;;;;;;;;;;16.50;65.20;;;;;;4511811;31;20195;-66
2022/11/21 07:07:56;;;;;;;;;;;16.50;65.10;;;;;;4513806;31;20041;-66
2022/11/21 07:10:22;;;;;;;;;;;16.50;65.10;;;;;;4516872;31;20025;-66
2022/11/21 07:15:32;;;;;;;;;;;16.50;65.10;;;;;;4516898;31;20068;-66
2022/11/21 07:17:58;;;;;;;;;;;16.50;65.10;;;;;;4515141;31;20142;-66
2022/11/21 07:20:24;;;;;;;;;;;16.50;65.10;;;;;;4516711;31;20028;-66
2022/11/21 07:22:52;;;;;;;;;;;16.50;65.00;;;;;;4500236;31;19981;-66
2022/11/21 07:25:18;;;;;;;;;;;16.50;65.00;;;;;;4498111;31;20041;-66
2022/11/21 07:27:44;;;;;;;;;;;16.50;64.90;;;;;;4514451;31;20070;-66
2022/11/21 07:30:10;;;;;;;;;;;16.50;65.00;;;;;;4500444;31;20021;-66
2022/11/21 07:32:36;;;;;;;;;;;16.50;65.00;;;;;;4516652;31;20040;-66
2022/11/21 07:35:01;;;;;;;;;;;16.40;64.90;;;;;;4508236;31;20210;-66
2022/11/21 07:37:27;;;;;;;;;;;16.40;64.90;;;;;;4496881;31;20385;-66
2022/11/21 07:39:53;;;;;;;;;;;16.40;64.90;;;;;;4515729;31;20179;-66
2022/11/21 07:42:19;;;;;;;;;;;16.40;64.90;;;;;;4515286;31;20032;-66
2022/11/21 07:44:45;;;;;;;;;;;16.40;64.90;;;;;;4503839;31;20109;-66
2022/11/21 07:47:11;;;;;;;;;;;16.40;64.90;;;;;;4506488;31;20037;-66
2022/11/21 07:49:37;;;;;;;;;;;16.40;64.90;;;;;;4515295;31;20040;-66
2022/11/21 07:52:03;;;;;;;;;;;16.40;64.90;;;;;;4526672;31;20016;-66
2022/11/21 07:54:29;;;;;;;;;;;16.40;64.90;;;;;;4507064;31;20025;-66
2022/11/21 07:56:55;;;;;;;;;;;16.40;64.80;;;;;;4524175;31;20258;-66
2022/11/21 07:59:22;;;;;;;;;;;16.30;64.80;;;;;;4524735;31;20175;-68
2022/11/21 08:01:49;;;;;;;;;;;16.40;64.80;;;;;;4516076;31;20022;-66
2022/11/21 08:04:21;;;;;;;;;;;16.30;64.60;;;;;;4514032;31;20054;-67
2022/11/21 08:06:47;;;;;;;;;;;16.30;64.10;;;;;;4528377;31;20027;-66
2022/11/21 08:09:13;;;;;;;;;;;16.30;64.30;;;;;;4514142;31;20024;-66
2022/11/21 08:11:39;;;;;;;;;;;16.30;64.50;;;;;;4523774;31;20017;-65
2022/11/21 08:14:05;;;;;;;;;;;16.30;64.70;;;;;;4514852;31;20009;-66
2022/11/21 08:16:31;;;;;;;;;;;16.30;64.90;;;;;;4515025;31;20436;-67
2022/11/21 08:18:58;;;;;;;;;;;16.40;65.40;;;;;;4528153;31;20009;-66
2022/11/21 08:21:24;;;;;;;;;;;16.40;65.10;;;;;;4513836;31;20025;-66
2022/11/21 08:23:50;;;;;;;;;;;16.40;65.10;;;;;;4527949;31;20051;-67
2022/11/21 08:26:16;;;;;;;;;;;16.50;65.00;;;;;;4513605;31;20160;-66
2022/11/21 08:28:42;;;;;;;;;;;16.60;64.80;;;;;;4515756;31;20029;-66
2022/11/21 08:31:10;;;;;;;;;;;16.70;64.50;;;;;;4514613;31;20024;-66
2022/11/21 08:33:35;;;;;;;;;;;16.80;64.30;;;;;;4514719;31;20437;-66
2022/11/21 08:36:05;;;;;;;;;;;16.90;64.00;;;;;;4527686;31;20087;-66
2022/11/21 08:38:31;;;;;;;;;;;17.00;63.80;;;;;;4513364;31;20142;-67
2022/11/21 08:43:42;;;;;;;;;;;17.30;63.40;;;;;;4513178;31;20082;-66
2022/11/21 08:46:08;;;;;;;;;;;17.40;63.10;;;;;;4514957;31;20029;-66
2022/11/21 08:48:34;;;;;;;;;;;17.50;62.90;;;;;;4513613;31;19965;-67
2022/11/21 08:51:00;;;;;;;;;;;17.60;62.90;;;;;;4513654;31;20031;-69
2022/11/21 08:53:26;;;;;;;;;;;17.70;62.70;;;;;;4515150;31;20047;-69
2022/11/21 08:55:55;;;;;;;;;;;17.70;62.60;;;;;;4525276;31;20028;-66
2022/11/21 08:58:21;;;;;;;;;;;17.80;62.60;;;;;;4514728;31;20050;-66
2022/11/21 09:00:47;;;;;;;;;;;17.80;62.40;;;;;;4513224;31;20032;-67
2022/11/21 09:03:13;;;;;;;;;;;17.90;62.40;;;;;;4514619;31;20044;-66
2022/11/21 09:05:39;;;;;;;;;;;17.90;62.30;;;;;;4526504;31;20096;-65
2022/11/21 09:08:05;;;;;;;;;;;18.00;62.40;;;;;;4512598;31;20036;-66
2022/11/21 09:10:30;;;;;;;;;;;18.00;62.30;;;;;;4514306;31;20021;-66
2022/11/21 09:12:57;;;;;;;;;;;18.00;62.20;;;;;;4511957;31;20072;-65
2022/11/21 09:18:09;;;;;;;;;;;18.10;62.20;;;;;;4512542;31;20047;-64
2022/11/21 09:20:43;;;;;;;;;;;18.10;62.20;;;;;;4513453;31;20433;-67
2022/11/21 09:23:10;;;;;;;;;;;18.20;62.20;;;;;;4514370;31;20158;-64
2022/11/21 09:25:36;;;;;;;;;;;18.20;62.10;;;;;;4512236;31;20040;-66
2022/11/21 09:28:04;;;;;;;;;;;18.20;62.10;;;;;;4514341;31;20094;-65
2022/11/21 09:30:30;;;;;;;;;;;18.20;62.10;;;;;;4512171;31;20032;-66
2022/11/21 09:33:03;;;;;;;;;;;18.20;62.00;;;;;;4513577;31;20040;-66
2022/11/21 09:35:28;;;;;;;;;;;18.20;62.00;;;;;;4512739;31;20401;-66
2022/11/21 09:37:54;;;;;;;;;;;18.30;62.00;;;;;;4511495;31;20093;-68
2022/11/21 09:40:21;;;;;;;;;;;18.30;62.00;;;;;;4521202;31;20071;-67
2022/11/21 09:43:12;;;;;;;;;;;18.30;62.00;;;;;;4512051;31;20037;-67
2022/11/21 09:45:48;;;;;;;;;;;18.30;61.90;;;;;;4513751;31;20039;-67
2022/11/21 09:48:21;;;;;;;;;;;18.40;61.80;;;;;;4513022;31;20382;-68
2022/11/21 09:50:50;;;;;;;;;;;18.40;61.70;;;;;;4512917;31;20021;-66
2022/11/21 09:53:28;;;;;;;;;;;18.40;61.60;;;;;;4514156;31;20033;-68
2022/11/21 09:56:00;;;;;;;;;;;18.50;61.40;;;;;;4510464;31;20036;-69
2022/11/21 09:58:39;;;;;;;;;;;18.60;61.40;;;;;;4511611;31;20507;-68
2022/11/21 10:01:05;;;;;;;;;;;18.60;61.20;;;;;;4511907;31;20469;-66
2022/11/21 10:03:36;;;;;;;;;;;18.70;61.10;;;;;;4512220;31;20021;-68
2022/11/21 10:06:18;;;;;;;;;;;18.80;61.00;;;;;;4525364;31;20037;-67
2022/11/21 10:08:55;;;;;;;;;;;18.80;60.80;;;;;;4498957;31;20024;-68
2022/11/21 10:12:35;;;;;;;;;;;19.00;60.70;;;;;;4513047;31;20040;-69
2022/11/21 10:14:45;;;;;;;;;;;19.00;60.40;;;;;;4511139;31;19981;-68
2022/11/21 10:17:11;;;;;;;;;;;19.10;60.20;;;;;;4497879;31;20037;-67
2022/11/21 10:19:44;;;;;;;;;;;19.10;60.10;;;;;;4513003;31;20021;-67
2022/11/21 10:22:09;;;;;;;;;;;19.20;60.10;;;;;;4510185;31;20037;-67
2022/11/21 10:24:49;;;;;;;;;;;19.20;59.90;;;;;;4513014;31;20078;-67
2022/11/21 10:27:26;;;;;;;;;;;19.30;59.70;;;;;;4513597;31;20028;-66
2022/11/21 10:29:54;;;;;;;;;;;19.30;59.50;;;;;;4499462;31;20197;-66
2022/11/21 10:32:29;;;;;;;;;;;19.40;59.40;;;;;;4513267;31;20437;-66
2022/11/21 10:34:58;;;;;;;;;;;19.50;59.30;;;;;;4522880;31;20025;-68
2022/11/21 10:37:44;;;;;;;;;;;19.60;59.20;;;;;;4524321;31;20133;-67
2022/11/21 10:40:19;;;;;;;;;;;19.60;58.90;;;;;;4512385;31;20138;-67
2022/11/21 10:42:50;;;;;;;;;;;19.60;58.90;;;;;;4508651;31;20052;-68
2022/11/21 10:45:16;;;;;;;;;;;19.70;58.80;;;;;;4512293;31;20025;-67
2022/11/21 10:47:42;;;;;;;;;;;19.80;58.70;;;;;;4509631;31;20543;-67
2022/11/21 10:50:09;;;;;;;;;;;19.80;58.60;;;;;;4512898;31;20162;-66
2022/11/21 10:52:38;;;;;;;;;;;19.90;58.50;;;;;;4512551;31;20376;-67
2022/11/21 10:55:06;;;;;;;;;;;19.90;58.50;;;;;;4510623;31;20040;-67
2022/11/21 10:57:37;;;;;;;;;;;19.90;58.40;;;;;;4513282;31;20551;-67
2022/11/21 11:00:09;;;;;;;;;;;20.00;58.30;;;;;;4510364;31;20028;-67
2022/11/21 11:02:36;;;;;;;;;;;20.00;58.10;;;;;;4499747;31;20099;-67
2022/11/21 11:05:28;;;;;;;;;;;20.00;57.90;;;;;;4509664;31;20159;-66
2022/11/21 11:08:01;;;;;;;;;;;19.90;58.00;;;;;;4508537;31;20043;-69
2022/11/21 11:10:27;;;;;;;;;;;19.90;58.20;;;;;;4512090;31;20053;-68
2022/11/21 11:15:50;;;;;;;;;;;19.90;58.40;;;;;;4512062;31;20158;-67
2022/11/21 11:18:18;;;;;;;;;;;19.80;58.40;;;;;;4510119;31;20089;-67
2022/11/21 11:20:44;;;;;;;;;;;19.90;58.40;;;;;;4510986;31;20028;-66
2022/11/21 11:23:19;;;;;;;;;;;19.90;58.30;;;;;;4497314;31;20123;-65
2022/11/21 11:25:55;;;;;;;;;;;20.00;58.40;;;;;;4509615;31;20063;-67
2022/11/21 11:28:24;;;;;;;;;;;20.00;58.30;;;;;;4511133;31;20085;-67
2022/11/21 11:30:51;;;;;;;;;;;20.00;58.20;;;;;;4508578;31;20132;-66
2022/11/21 11:33:36;;;;;;;;;;;20.10;58.20;;;;;;4511598;31;20041;-66
2022/11/21 11:36:10;;;;;;;;;;;20.10;58.10;;;;;;4511510;31;20056;-70
2022/11/21 11:38:36;;;;;;;;;;;20.10;58.00;;;;;;4508460;31;20033;-69
2022/11/21 11:41:08;;;;;;;;;;;20.20;57.90;;;;;;4510379;31;20027;-70
2022/11/21 11:50:09;;;;;;;;;;;20.30;57.60;;;;;;4511148;31;20045;-68
2022/11/21 11:52:20;;;;;;;;;;;20.40;57.50;;;;;;4509386;31;20091;-68
2022/11/21 11:54:48;;;;;;;;;;;20.40;57.40;;;;;;4512463;31;20201;-68
2022/11/21 11:57:15;;;;;;;;;;;20.50;57.40;;;;;;4488267;31;26318;-68
2022/11/21 12:00:02;;;;;;;;;;;20.50;57.40;;;;;;4497295;31;20029;-68
2022/11/21 12:02:35;;;;;;;;;;;20.60;57.30;;;;;;4513272;31;20060;-67
2022/11/21 12:05:08;;;;;;;;;;;20.50;57.60;;;;;;4513738;31;20028;-67
2022/11/21 12:07:36;;;;;;;;;;;20.60;57.20;;;;;;4514211;31;20040;-67
2022/11/21 12:10:11;;;;;;;;;;;20.60;57.20;;;;;;4489159;31;20437;-68
2022/11/21 12:12:38;;;;;;;;;;;20.60;57.10;;;;;;4512894;31;20041;-71
2022/11/21 12:16:04;;;;;;;;;;;20.60;57.00;;;;;;4515272;31;20142;-70
2022/11/21 12:18:16;;;;;;;;;;;20.60;57.10;;;;;;4497684;31;20057;-70
2022/11/21 12:20:52;;;;;;;;;;;20.60;57.10;;;;;;4504907;31;20049;-71
2022/11/21 12:23:19;;;;;;;;;;;20.60;57.00;;;;;;4514136;31;20178;-70
2022/11/21 12:26:05;;;;;;;;;;;20.60;56.90;;;;;;4511815;31;20052;-68
2022/11/21 12:28:34;;;;;;;;;;;20.70;56.90;;;;;;4496336;31;20033;-67
2022/11/21 12:31:14;;;;;;;;;;;20.70;56.80;;;;;;4512730;31;20057;-68
2022/11/21 12:33:45;;;;;;;;;;;20.70;56.70;;;;;;4524435;31;20201;-68
2022/11/21 12:36:28;;;;;;;;;;;20.70;57.60;;;;;;4513193;31;20178;-67
2022/11/21 12:38:57;;;;;;;;;;;20.70;56.60;;;;;;4511875;31;20478;-68
2022/11/21 12:44:20;;;;;;;;;;;20.80;56.40;;;;;;4514824;31;19977;-67
2022/11/21 12:46:57;;;;;;;;;;;20.80;56.40;;;;;;4509531;31;20884;-67
2022/11/21 12:55:02;;;;;;;;;;;20.80;56.30;;;;;;4513651;31;20359;-66
2022/11/21 12:57:35;;;;;;;;;;;20.80;56.30;;;;;;4515606;31;20021;-66
2022/11/21 13:00:10;;;;;;;;;;;20.80;56.20;;;;;;4513259;31;20025;-67
2022/11/21 13:02:42;;;;;;;;;;;20.80;56.10;;;;;;4515512;31;20384;-67
2022/11/21 13:05:11;;;;;;;;;;;20.80;56.00;;;;;;4511991;31;20039;-66
2022/11/21 13:07:37;;;;;;;;;;;20.80;56.00;;;;;;4525601;31;20033;-66
2022/11/21 13:10:03;;;;;;;;;;;20.80;56.00;;;;;;4512269;31;20419;-66
2022/11/21 13:12:30;;;;;;;;;;;20.80;55.90;;;;;;4513440;31;20037;-66
2022/11/21 13:14:55;;;;;;;;;;;20.80;55.90;;;;;;4515014;31;20025;-66
2022/11/21 13:17:24;;;;;;;;;;;20.80;55.80;;;;;;4513085;31;20035;-67
2022/11/21 13:19:50;;;;;;;;;;;20.80;55.80;;;;;;4515190;31;20029;-68
2022/11/21 13:22:34;;;;;;;;;;;20.80;55.60;;;;;;4512506;31;20443;-66
2022/11/21 13:25:01;;;;;;;;;;;20.90;55.60;;;;;;4512793;31;20033;-64
2022/11/21 13:27:29;;;;;;;;;;;20.90;55.60;;;;;;4526057;31;20028;-65
2022/11/21 13:30:10;;;;;;;;;;;20.90;55.60;;;;;;4508637;31;20101;-66
2022/11/21 13:32:41;;;;;;;;;;;20.90;55.60;;;;;;4514195;31;20044;-64
2022/11/21 13:35:13;;;;;;;;;;;21.00;55.60;;;;;;4512774;31;20578;-67
2022/11/21 13:37:48;;;;;;;;;;;21.00;55.60;;;;;;4513342;31;20029;-66
2022/11/21 13:40:26;;;;;;;;;;;21.10;55.70;;;;;;4512290;31;20046;-68
2022/11/21 13:43:08;;;;;;;;;;;21.10;55.70;;;;;;4511823;31;20087;-67
2022/11/21 13:45:45;;;;;;;;;;;21.10;55.70;;;;;;4512974;31;20037;-68
2022/11/21 13:48:29;;;;;;;;;;;21.20;55.70;;;;;;4513000;31;20009;-65
2022/11/21 13:51:29;;;;;;;;;;;21.20;55.70;;;;;;4510848;31;20043;-66
2022/11/21 13:54:04;;;;;;;;;;;21.20;55.70;;;;;;4487474;31;20033;-65
2022/11/21 13:56:38;;;;;;;;;;;21.20;55.70;;;;;;4509008;31;20025;-64
2022/11/21 13:59:19;;;;;;;;;;;21.30;55.80;;;;;;4513093;31;20044;-66
2022/11/21 14:01:53;;;;;;;;;;;21.30;55.80;;;;;;4513065;31;20095;-66
2022/11/21 14:04:19;;;;;;;;;;;21.40;55.70;;;;;;4511008;31;20028;-68
2022/11/21 14:06:45;;;;;;;;;;;21.30;55.60;;;;;;4513870;31;20040;-68
2022/11/21 14:09:17;;;;;;;;;;;21.30;55.50;;;;;;4524119;31;20043;-65
2022/11/21 14:11:48;;;;;;;;;;;21.30;55.40;;;;;;4513307;31;20071;-66
2022/11/21 14:14:32;;;;;;;;;;;21.40;55.40;;;;;;4511067;31;19995;-65
2022/11/21 14:17:28;;;;;;;;;;;21.40;55.20;;;;;;4510810;31;20033;-65
2022/11/21 14:19:56;;;;;;;;;;;21.40;55.20;;;;;;4503259;31;20074;-66
2022/11/21 14:22:25;;;;;;;;;;;21.40;56.10;;;;;;4511023;31;20029;-66
2022/11/21 14:24:52;;;;;;;;;;;21.40;55.20;;;;;;4512451;31;20039;-66
2022/11/21 14:27:23;;;;;;;;;;;21.40;55.20;;;;;;4513577;31;20082;-65
2022/11/21 14:29:49;;;;;;;;;;;21.40;55.20;;;;;;4511096;31;20076;-65
2022/11/21 14:32:15;;;;;;;;;;;21.40;55.10;;;;;;4526028;31;20158;-65
2022/11/21 14:34:41;;;;;;;;;;;21.40;55.10;;;;;;4512053;31;20109;-65
2022/11/21 14:37:07;;;;;;;;;;;21.40;55.10;;;;;;4513671;31;20040;-66
2022/11/21 14:39:38;;;;;;;;;;;21.40;55.00;;;;;;4512824;31;19993;-65
2022/11/21 14:42:05;;;;;;;;;;;21.50;54.90;;;;;;4512608;31;20044;-64
2022/11/21 14:44:31;;;;;;;;;;;21.50;54.80;;;;;;4513555;31;20060;-65
2022/11/21 14:47:14;;;;;;;;;;;21.50;54.70;;;;;;4501941;31;20050;-64
2022/11/21 14:49:47;;;;;;;;;;;21.50;54.60;;;;;;4525352;31;20036;-64
2022/11/21 14:52:26;;;;;;;;;;;21.50;54.50;;;;;;4512257;31;20037;-66
2022/11/21 14:54:54;;;;;;;;;;;21.50;54.40;;;;;;4512524;31;20017;-66